Time;durP1;ratioP1;P1;durP2;ratioP2;P2;SDS_P1;SDS_P2;PMS_P1;PMS_P2;Temp;Humidity;BMP_temperature;BMP_pressure;BME280_temperature;BME280_humidity;BME280_pressure;Samples;Min_cycle;Max_cycle;Signal;HPM_P1;HPM_P2
2022/01/06 00:00:12;;;;;;;13.60;1.83;;;4.00;99.90;;;;;;5024246;28;20057;-79
2022/01/06 00:02:38;;;;;;;11.77;2.05;;;4.00;99.90;;;;;;5025271;28;20045;-79
2022/01/06 00:05:05;;;;;;;14.98;1.88;;;3.90;99.90;;;;;;5034666;28;20485;-79
2022/01/06 00:07:31;;;;;;;15.38;1.88;;;3.90;99.90;;;;;;5024278;28;20045;-79
2022/01/06 00:09:57;;;;;;;21.60;2.47;;;3.90;99.90;;;;;;5025451;28;20591;-79
2022/01/06 00:12:30;;;;;;;8.48;1.95;;;3.90;99.90;;;;;;5022259;28;20124;-79
2022/01/06 00:15:22;;;;;;;13.82;2.15;;;3.90;99.90;;;;;;5026669;28;20607;-79
2022/01/06 00:18:12;;;;;;;12.10;1.73;;;3.90;99.90;;;;;;5020244;28;20049;-79
2022/01/06 00:23:28;;;;;;;15.00;2.85;;;4.00;99.90;;;;;;5022070;28;20056;-79
2022/01/06 00:25:54;;;;;;;17.27;2.10;;;3.90;99.90;;;;;;5025181;28;20096;-79
2022/01/06 00:28:20;;;;;;;12.40;1.55;;;4.00;99.90;;;;;;5025447;28;20378;-79
2022/01/06 00:30:46;;;;;;;11.25;1.88;;;4.00;99.90;;;;;;5021172;28;20053;-79
2022/01/06 00:33:13;;;;;;;10.00;1.70;;;4.00;99.90;;;;;;5023337;28;20152;-79
2022/01/06 00:35:39;;;;;;;11.50;1.42;;;4.00;99.90;;;;;;5024318;28;20048;-79
2022/01/06 00:38:08;;;;;;;13.38;1.65;;;4.00;99.90;;;;;;5027118;28;20053;-79
2022/01/06 00:40:37;;;;;;;10.73;1.23;;;4.00;99.90;;;;;;5025473;28;20046;-79
2022/01/06 00:43:04;;;;;;;11.35;2.15;;;4.00;99.90;;;;;;5024389;28;20076;-79
2022/01/06 00:45:31;;;;;;;9.63;1.45;;;4.00;99.90;;;;;;5025126;28;20064;-79
2022/01/06 00:47:57;;;;;;;9.18;1.33;;;4.30;99.90;;;;;;5023361;28;20490;-79
2022/01/06 00:50:22;;;;;;;11.90;1.85;;;3.90;99.90;;;;;;5027243;28;20497;-79
2022/01/06 00:52:49;;;;;;;11.80;2.30;;;3.40;99.90;;;;;;5022091;28;20065;-79
2022/01/06 00:55:15;;;;;;;10.18;1.95;;;3.80;99.90;;;;;;5027095;28;20382;-79
2022/01/06 00:57:41;;;;;;;16.58;2.00;;;4.00;99.90;;;;;;5025085;28;20054;-79
2022/01/06 01:00:08;;;;;;;10.77;1.58;;;4.00;99.90;;;;;;5027903;28;20041;-79
2022/01/06 01:02:33;;;;;;;15.05;1.60;;;4.00;99.90;;;;;;5028176;28;20139;-79
2022/01/06 01:04:59;;;;;;;8.98;1.48;;;4.00;99.90;;;;;;5027874;28;20037;-79
2022/01/06 01:07:24;;;;;;;11.13;1.48;;;4.00;99.90;;;;;;5028131;28;20045;-79
2022/01/06 01:09:50;;;;;;;9.60;1.33;;;3.90;99.90;;;;;;5029634;28;20489;-81
2022/01/06 01:12:16;;;;;;;11.88;1.48;;;3.90;99.90;;;;;;5025384;28;20544;-79
2022/01/06 01:14:53;;;;;;;16.20;1.83;;;3.90;99.90;;;;;;5030107;28;20128;-79
2022/01/06 01:17:19;;;;;;;11.10;1.70;;;3.90;99.90;;;;;;5028895;28;20053;-79
2022/01/06 01:19:45;;;;;;;16.58;1.95;;;3.80;99.90;;;;;;5022015;28;20037;-81
2022/01/06 01:22:10;;;;;;;13.25;1.70;;;3.80;99.90;;;;;;5030273;28;20068;-79
2022/01/06 01:24:36;;;;;;;14.50;1.67;;;3.80;99.90;;;;;;5027905;28;20037;-79
2022/01/06 01:27:04;;;;;;;12.73;1.70;;;3.90;99.90;;;;;;5019836;28;20046;-79
2022/01/06 01:29:33;;;;;;;10.90;1.30;;;3.70;99.90;;;;;;5022234;28;20547;-79
2022/01/06 01:31:59;;;;;;;13.50;2.00;;;3.60;99.90;;;;;;5021899;28;20056;-79
2022/01/06 01:34:27;;;;;;;16.13;2.47;;;3.60;99.90;;;;;;5026337;28;20054;-79
2022/01/06 01:36:55;;;;;;;13.70;1.42;;;3.60;99.90;;;;;;5029817;28;20091;-79
2022/01/06 01:39:22;;;;;;;13.32;1.30;;;3.50;99.90;;;;;;5029778;28;20049;-79
2022/01/06 01:41:49;;;;;;;15.02;1.35;;;3.50;99.90;;;;;;5028537;28;20054;-79
2022/01/06 01:44:18;;;;;;;8.38;1.50;;;3.80;99.90;;;;;;5025548;28;20037;-79
2022/01/06 01:46:57;;;;;;;15.45;1.42;;;3.40;99.90;;;;;;5026529;28;20045;-79
2022/01/06 01:51:48;;;;;;;10.60;1.42;;;3.40;99.90;;;;;;5028412;28;20041;-79
2022/01/06 01:54:13;;;;;;;10.10;1.30;;;3.30;99.90;;;;;;5023223;28;20080;-79
2022/01/06 01:56:39;;;;;;;8.60;1.10;;;3.30;99.90;;;;;;5022093;28;20053;-79
2022/01/06 01:59:05;;;;;;;7.47;1.40;;;3.30;99.90;;;;;;5027285;28;20054;-79
2022/01/06 02:01:31;;;;;;;20.65;2.38;;;3.40;99.90;;;;;;5023965;28;20045;-79
2022/01/06 02:03:57;;;;;;;8.35;1.77;;;3.40;99.90;;;;;;5026068;28;20131;-79
2022/01/06 02:06:23;;;;;;;10.48;2.13;;;3.40;99.90;;;;;;5023907;28;20068;-79
2022/01/06 02:08:51;;;;;;;14.90;1.98;;;3.40;99.90;;;;;;5026492;28;20051;-79
2022/01/06 02:11:17;;;;;;;9.82;2.10;;;3.40;99.90;;;;;;5023193;28;20045;-79
2022/01/06 02:13:50;;;;;;;12.95;2.30;;;3.40;99.90;;;;;;5029349;28;20043;-79
2022/01/06 02:16:26;;;;;;;11.10;1.85;;;3.40;99.90;;;;;;5028807;28;20428;-79
2022/01/06 02:18:53;;;;;;;8.02;1.05;;;3.40;99.90;;;;;;5026433;28;20056;-79
2022/01/06 02:21:19;;;;;;;13.32;1.75;;;3.40;99.90;;;;;;5029364;28;20489;-79
2022/01/06 02:23:45;;;;;;;11.60;1.73;;;3.50;99.90;;;;;;5028466;28;20049;-79
2022/01/06 02:26:12;;;;;;;8.98;1.42;;;3.40;99.90;;;;;;5024802;28;20041;-79
2022/01/06 02:28:40;;;;;;;13.88;1.77;;;3.40;99.90;;;;;;5024210;28;20033;-79
2022/01/06 02:31:06;;;;;;;14.15;1.88;;;3.50;99.90;;;;;;5025493;28;20053;-79
2022/01/06 02:33:32;;;;;;;13.68;1.88;;;3.50;99.90;;;;;;5024452;28;20033;-79
2022/01/06 02:35:58;;;;;;;18.52;2.80;;;3.50;99.90;;;;;;5028555;28;20547;-79
2022/01/06 02:38:24;;;;;;;10.32;1.42;;;3.50;99.90;;;;;;5026999;28;20107;-79
2022/01/06 02:40:50;;;;;;;8.98;1.63;;;3.50;99.90;;;;;;5026498;28;20081;-79
2022/01/06 02:43:22;;;;;;;14.13;1.90;;;3.50;99.90;;;;;;5026254;28;20064;-79
2022/01/06 02:45:48;;;;;;;14.23;1.83;;;3.60;99.90;;;;;;5027083;28;20693;-79
2022/01/06 02:48:14;;;;;;;14.10;2.10;;;3.40;99.90;;;;;;5027237;28;20076;-79
2022/01/06 02:50:43;;;;;;;11.65;1.38;;;3.60;99.90;;;;;;5027450;28;20049;-79
2022/01/06 02:53:11;;;;;;;8.57;2.10;;;3.60;99.90;;;;;;5026842;28;20056;-79
2022/01/06 02:55:40;;;;;;;15.35;2.88;;;3.60;99.90;;;;;;5024198;28;20051;-79
2022/01/06 02:58:06;;;;;;;16.27;1.92;;;3.70;99.90;;;;;;5025041;28;20095;-79
2022/01/06 03:00:35;;;;;;;8.73;2.22;;;3.70;99.90;;;;;;5025626;28;20049;-79
2022/01/06 03:03:01;;;;;;;9.95;1.02;;;3.60;99.90;;;;;;5022818;28;20120;-79
2022/01/06 03:05:27;;;;;;;15.70;1.80;;;3.60;99.90;;;;;;5021557;28;20053;-79
2022/01/06 03:07:52;;;;;;;12.18;1.77;;;3.60;99.90;;;;;;5023372;28;20034;-79
2022/01/06 03:10:18;;;;;;;13.13;1.65;;;3.60;99.90;;;;;;5026153;28;20072;-79
2022/01/06 03:12:45;;;;;;;11.40;1.55;;;3.50;99.90;;;;;;5023835;28;20094;-79
2022/01/06 03:15:16;;;;;;;11.77;1.67;;;3.50;99.90;;;;;;5024332;28;20052;-79
2022/01/06 03:17:45;;;;;;;10.20;1.52;;;3.50;99.90;;;;;;5026433;28;20049;-79
2022/01/06 03:20:13;;;;;;;13.90;2.22;;;3.50;99.90;;;;;;5026131;28;20045;-79
2022/01/06 03:22:40;;;;;;;10.73;1.42;;;3.50;99.90;;;;;;5026351;28;21106;-79
2022/01/06 03:25:07;;;;;;;10.55;1.40;;;3.40;99.90;;;;;;5027385;28;20045;-79
2022/01/06 03:27:33;;;;;;;11.80;1.33;;;3.40;99.90;;;;;;5027818;28;20049;-79
2022/01/06 03:29:58;;;;;;;12.88;1.95;;;3.40;99.90;;;;;;5020164;28;20106;-79
2022/01/06 03:32:24;;;;;;;15.07;2.13;;;3.30;99.90;;;;;;5022658;28;20121;-79
2022/01/06 03:34:50;;;;;;;8.57;1.40;;;3.40;99.90;;;;;;5026741;28;20400;-79
2022/01/06 03:37:16;;;;;;;14.35;1.88;;;3.40;99.90;;;;;;5021970;28;20497;-79
2022/01/06 03:39:42;;;;;;;15.10;2.58;;;3.30;99.90;;;;;;5024615;28;20120;-79
2022/01/06 03:42:09;;;;;;;13.63;1.70;;;3.30;99.90;;;;;;5025517;28;20045;-79
2022/01/06 03:44:35;;;;;;;18.58;2.75;;;3.20;99.90;;;;;;5023315;28;20133;-79
2022/01/06 03:47:01;;;;;;;14.00;2.13;;;3.20;99.90;;;;;;5023777;28;20171;-79
2022/01/06 03:49:27;;;;;;;12.07;1.65;;;3.20;99.90;;;;;;5026222;28;20041;-79
2022/01/06 03:51:53;;;;;;;13.32;1.88;;;3.40;99.90;;;;;;5025521;28;20065;-79
2022/01/06 03:54:18;;;;;;;13.93;1.60;;;3.10;99.90;;;;;;5026209;28;20481;-79
2022/01/06 03:56:47;;;;;;;8.27;1.60;;;3.00;99.90;;;;;;5026520;28;20046;-79
2022/01/06 03:59:12;;;;;;;13.88;1.75;;;3.00;99.90;;;;;;5027666;28;20045;-79
2022/01/06 04:01:38;;;;;;;13.27;1.30;;;2.90;99.90;;;;;;5021439;28;20037;-79
2022/01/06 04:04:03;;;;;;;15.93;2.47;;;2.90;99.90;;;;;;5022372;28;20049;-79
2022/01/06 04:06:30;;;;;;;17.02;2.08;;;2.80;99.90;;;;;;5035088;28;20038;-79
2022/01/06 04:08:55;;;;;;;13.93;2.22;;;2.80;99.90;;;;;;5026806;28;20053;-79
2022/01/06 04:11:21;;;;;;;8.70;1.48;;;2.70;99.90;;;;;;5019188;28;20037;-79
2022/01/06 04:13:46;;;;;;;11.95;1.58;;;2.60;99.90;;;;;;5057131;28;20045;-79
2022/01/06 04:16:15;;;;;;;8.45;1.45;;;2.60;99.90;;;;;;5024324;28;20060;-79
2022/01/06 04:18:40;;;;;;;7.80;1.58;;;2.60;99.90;;;;;;5024375;28;20061;-79
2022/01/06 04:21:07;;;;;;;7.82;1.00;;;2.50;99.90;;;;;;5019117;28;20042;-79
2022/01/06 04:23:33;;;;;;;9.77;1.65;;;2.60;99.90;;;;;;5025190;28;20045;-79
2022/01/06 04:25:59;;;;;;;10.82;1.20;;;2.50;99.90;;;;;;5017850;28;20045;-79
2022/01/06 04:28:25;;;;;;;10.10;1.60;;;2.50;99.90;;;;;;5025923;28;20102;-79
2022/01/06 04:30:50;;;;;;;11.93;2.30;;;3.00;99.90;;;;;;5027305;28;20427;-79
2022/01/06 04:33:16;;;;;;;13.05;2.47;;;2.50;99.90;;;;;;5024984;28;20045;-79
2022/01/06 04:35:42;;;;;;;10.70;1.75;;;2.50;99.90;;;;;;5024217;28;20393;-79
2022/01/06 04:38:08;;;;;;;9.70;1.40;;;2.40;99.90;;;;;;5024497;28;20052;-79
2022/01/06 04:40:34;;;;;;;14.18;1.55;;;2.40;99.90;;;;;;5029166;28;20038;-79
2022/01/06 04:42:59;;;;;;;16.70;1.65;;;2.30;99.90;;;;;;5030375;28;20446;-79
2022/01/06 04:45:25;;;;;;;12.93;1.45;;;2.30;99.90;;;;;;5027322;28;20469;-80
2022/01/06 04:47:51;;;;;;;16.17;1.70;;;2.60;99.90;;;;;;5027031;28;20049;-80
2022/01/06 04:50:16;;;;;;;11.57;1.27;;;2.10;99.90;;;;;;5028243;28;20057;-80
2022/01/06 04:52:42;;;;;;;12.88;2.05;;;2.60;99.90;;;;;;5028741;28;20148;-80
2022/01/06 04:55:08;;;;;;;17.92;2.65;;;2.30;99.90;;;;;;5030390;28;20400;-80
2022/01/06 04:57:34;;;;;;;16.75;1.92;;;2.00;99.90;;;;;;5029504;28;20754;-79
2022/01/06 05:00:00;;;;;;;12.55;1.88;;;2.00;99.90;;;;;;5022153;28;20163;-80
2022/01/06 05:02:25;;;;;;;10.00;1.70;;;2.00;99.90;;;;;;5030555;28;20038;-80
2022/01/06 05:04:51;;;;;;;11.52;1.50;;;2.00;99.90;;;;;;5029008;28;20099;-80
2022/01/06 05:07:17;;;;;;;11.52;1.83;;;1.90;99.90;;;;;;5025025;28;20056;-80
2022/01/06 05:09:42;;;;;;;12.27;2.22;;;1.90;99.90;;;;;;5025290;28;20037;-80
2022/01/06 05:12:08;;;;;;;8.25;2.25;;;1.90;99.90;;;;;;5021793;28;20046;-79
2022/01/06 05:14:34;;;;;;;12.20;1.58;;;1.90;99.90;;;;;;5023633;28;20046;-80
2022/01/06 05:17:00;;;;;;;14.00;2.63;;;1.90;99.90;;;;;;5029811;28;20520;-80
2022/01/06 05:19:26;;;;;;;7.22;1.60;;;1.80;99.90;;;;;;5062138;28;20107;-79
2022/01/06 05:21:52;;;;;;;6.03;1.05;;;1.80;99.90;;;;;;5026696;28;20095;-79
2022/01/06 05:24:19;;;;;;;15.40;2.47;;;1.80;99.90;;;;;;5028664;28;20608;-80
2022/01/06 05:26:45;;;;;;;10.25;1.58;;;1.80;99.90;;;;;;5027556;28;20409;-80
2022/01/06 05:29:12;;;;;;;10.02;1.55;;;1.70;99.90;;;;;;5029465;28;20119;-80
2022/01/06 05:31:39;;;;;;;10.32;1.83;;;1.70;99.90;;;;;;5028478;28;20041;-80
2022/01/06 05:34:05;;;;;;;11.40;2.53;;;1.70;99.90;;;;;;5026777;28;20076;-80
2022/01/06 05:36:31;;;;;;;9.75;1.30;;;1.70;99.90;;;;;;5029704;28;20041;-80
2022/01/06 05:38:57;;;;;;;12.55;3.55;;;1.70;99.90;;;;;;5029832;28;20148;-80
2022/01/06 05:41:23;;;;;;;9.35;1.98;;;1.70;99.90;;;;;;5024311;28;20165;-79
2022/01/06 05:43:49;;;;;;;13.35;2.70;;;1.70;99.90;;;;;;5023389;28;20072;-80
2022/01/06 05:46:16;;;;;;;12.32;2.10;;;1.70;99.90;;;;;;5024493;28;20107;-80
2022/01/06 05:48:42;;;;;;;9.43;1.67;;;1.70;99.90;;;;;;5027865;28;20046;-79
2022/01/06 05:51:08;;;;;;;15.02;1.52;;;1.70;99.90;;;;;;5029219;28;20413;-80
2022/01/06 05:53:34;;;;;;;9.32;1.48;;;1.80;99.90;;;;;;5029290;28;20045;-80
2022/01/06 05:55:59;;;;;;;11.25;1.63;;;1.70;99.90;;;;;;5026156;28;20041;-80
2022/01/06 05:58:25;;;;;;;10.63;1.40;;;1.70;99.90;;;;;;5027823;28;20041;-80
2022/01/06 06:00:50;;;;;;;12.35;2.05;;;1.60;99.90;;;;;;5028085;28;20450;-80
2022/01/06 06:03:16;;;;;;;13.50;1.52;;;1.60;99.90;;;;;;5030843;28;20111;-79
2022/01/06 06:05:42;;;;;;;13.82;2.15;;;1.60;99.90;;;;;;5028245;28;20075;-79
2022/01/06 06:08:10;;;;;;;9.13;1.45;;;1.60;99.90;;;;;;5028317;28;20116;-80
2022/01/06 06:10:36;;;;;;;8.02;1.05;;;1.60;99.90;;;;;;5025597;28;20037;-80
2022/01/06 06:13:02;;;;;;;9.63;1.42;;;1.60;99.90;;;;;;5022695;28;20087;-80
2022/01/06 06:15:29;;;;;;;13.90;2.00;;;1.60;99.90;;;;;;5030773;28;20041;-80
2022/01/06 06:17:55;;;;;;;11.77;2.00;;;1.60;99.90;;;;;;5026134;28;20489;-80
2022/01/06 06:20:20;;;;;;;12.73;2.13;;;1.60;99.90;;;;;;5027531;28;20068;-80
2022/01/06 06:22:46;;;;;;;7.20;1.20;;;1.50;99.90;;;;;;5025679;28;20472;-80
2022/01/06 06:25:12;;;;;;;8.52;1.42;;;0.90;99.90;;;;;;5027022;28;20505;-80
2022/01/06 06:27:37;;;;;;;6.78;1.25;;;1.60;99.90;;;;;;5026627;28;20046;-80
2022/01/06 06:30:05;;;;;;;22.15;3.45;;;1.50;99.90;;;;;;5027902;28;20052;-79
2022/01/06 06:32:33;;;;;;;11.70;1.73;;;1.50;99.90;;;;;;5038601;28;20041;-80
2022/01/06 06:35:00;;;;;;;10.77;1.98;;;1.40;99.90;;;;;;5025865;28;20094;-79
2022/01/06 06:37:25;;;;;;;9.52;1.45;;;1.40;99.90;;;;;;5026665;28;20041;-80
2022/01/06 06:39:51;;;;;;;7.60;1.40;;;1.40;99.90;;;;;;5025754;28;20056;-80
2022/01/06 06:42:16;;;;;;;6.43;1.33;;;1.40;99.90;;;;;;5016314;28;20485;-80
2022/01/06 06:44:42;;;;;;;5.88;1.35;;;1.40;99.90;;;;;;5024534;28;20048;-80
2022/01/06 06:47:08;;;;;;;8.88;1.40;;;1.40;99.90;;;;;;5026037;28;20080;-80
2022/01/06 06:49:34;;;;;;;7.30;1.77;;;1.40;99.90;;;;;;5028149;28;20037;-79
2022/01/06 06:52:00;;;;;;;8.43;1.70;;;1.50;99.90;;;;;;5024563;28;20124;-80
2022/01/06 06:54:27;;;;;;;17.55;4.03;;;1.50;99.90;;;;;;5023965;28;20120;-80
2022/01/06 06:56:52;;;;;;;14.73;3.47;;;1.80;99.90;;;;;;5024749;28;20073;-83
2022/01/06 06:59:18;;;;;;;21.17;5.22;;;1.40;99.90;;;;;;5027984;28;20084;-80
2022/01/06 07:01:43;;;;;;;11.77;3.00;;;1.30;99.90;;;;;;5024780;28;20049;-81
2022/01/06 07:04:09;;;;;;;15.05;2.60;;;1.30;99.90;;;;;;5024719;28;20037;-80
2022/01/06 07:06:35;;;;;;;10.20;1.90;;;1.30;99.90;;;;;;5023410;28;20041;-80
2022/01/06 07:09:00;;;;;;;14.65;2.40;;;1.20;99.90;;;;;;5016762;28;20045;-81
2022/01/06 07:11:26;;;;;;;15.20;3.00;;;1.10;99.90;;;;;;5023837;28;20080;-81
2022/01/06 07:13:52;;;;;;;12.25;1.55;;;1.10;99.90;;;;;;5027663;28;20471;-80
2022/01/06 07:16:17;;;;;;;13.23;2.33;;;1.10;99.90;;;;;;5024902;28;20053;-80
2022/01/06 07:18:43;;;;;;;16.27;2.95;;;1.00;99.90;;;;;;5022068;28;20034;-80
2022/01/06 07:21:08;;;;;;;13.77;1.50;;;1.00;99.90;;;;;;5025991;28;20045;-81
2022/01/06 07:23:34;;;;;;;13.55;1.98;;;1.00;99.90;;;;;;5027492;28;20042;-77
2022/01/06 07:26:00;;;;;;;12.27;2.40;;;1.00;99.90;;;;;;5028147;28;20420;-77
2022/01/06 07:28:25;;;;;;;15.57;2.78;;;0.90;99.90;;;;;;5023465;28;20046;-77
2022/01/06 07:30:51;;;;;;;13.05;2.08;;;1.00;99.90;;;;;;5023831;28;20057;-77
2022/01/06 07:33:16;;;;;;;9.02;1.48;;;1.00;99.90;;;;;;5015094;28;20450;-78
2022/01/06 07:35:42;;;;;;;7.47;1.42;;;1.00;99.90;;;;;;5026869;28;20042;-78
2022/01/06 07:38:08;;;;;;;19.67;2.10;;;1.00;99.90;;;;;;5028575;28;20045;-78
2022/01/06 07:40:33;;;;;;;10.02;1.98;;;1.00;99.90;;;;;;5017420;28;20045;-78
2022/01/06 07:42:59;;;;;;;21.80;2.25;;;1.00;99.90;;;;;;5014475;28;20053;-77
2022/01/06 07:45:24;;;;;;;12.30;1.38;;;0.90;99.90;;;;;;5018547;28;20731;-80
2022/01/06 07:48:02;;;;;;;16.38;1.65;;;0.90;99.90;;;;;;5012650;28;20065;-78
2022/01/06 07:50:34;;;;;;;12.75;2.03;;;0.90;99.90;;;;;;5016613;28;20147;-77
2022/01/06 07:53:00;;;;;;;13.60;2.50;;;0.90;99.90;;;;;;5023948;28;20061;-76
2022/01/06 07:55:27;;;;;;;15.18;2.20;;;0.90;99.90;;;;;;5025644;28;20050;-77
2022/01/06 07:57:54;;;;;;;11.57;2.15;;;0.90;99.90;;;;;;5019967;28;20179;-77
2022/01/06 08:00:20;;;;;;;16.17;1.70;;;0.90;99.90;;;;;;5023507;28;20042;-77
2022/01/06 08:02:47;;;;;;;19.63;3.42;;;0.90;99.90;;;;;;5025197;28;20045;-77
2022/01/06 08:05:15;;;;;;;10.38;2.35;;;0.90;99.90;;;;;;5026305;28;20041;-76
2022/01/06 08:07:40;;;;;;;13.45;2.17;;;1.00;99.90;;;;;;5013425;28;20049;-76
2022/01/06 08:10:08;;;;;;;10.52;1.90;;;1.00;99.90;;;;;;5008530;28;20046;-76
2022/01/06 08:12:34;;;;;;;15.07;2.35;;;0.90;99.90;;;;;;5012806;28;20085;-75
2022/01/06 08:14:59;;;;;;;13.55;1.83;;;0.90;99.90;;;;;;5007221;28;21771;-76
2022/01/06 08:17:25;;;;;;;14.48;2.00;;;1.00;99.90;;;;;;5012695;28;20139;-76
2022/01/06 08:19:52;;;;;;;15.07;2.15;;;0.90;99.90;;;;;;5017917;28;20097;-76
2022/01/06 08:22:18;;;;;;;14.95;3.40;;;0.90;99.90;;;;;;5017604;28;20045;-76
2022/01/06 08:24:44;;;;;;;16.10;2.70;;;0.90;99.90;;;;;;5008822;28;20041;-77
2022/01/06 08:27:10;;;;;;;12.88;1.60;;;1.00;99.90;;;;;;5017183;28;20107;-76
2022/01/06 08:29:36;;;;;;;11.35;2.15;;;1.00;99.90;;;;;;5022051;28;20107;-76
2022/01/06 08:32:02;;;;;;;16.77;2.40;;;1.00;99.90;;;;;;5018933;28;20045;-76
2022/01/06 08:34:27;;;;;;;11.02;1.67;;;1.00;99.90;;;;;;5013094;28;20413;-76
2022/01/06 08:36:54;;;;;;;6.97;1.95;;;1.10;99.90;;;;;;5020287;28;20049;-76
2022/01/06 08:39:20;;;;;;;15.93;3.10;;;1.00;99.90;;;;;;5017585;28;20053;-76
2022/01/06 08:41:47;;;;;;;15.23;2.45;;;1.00;99.90;;;;;;5019214;28;20052;-76
2022/01/06 08:44:13;;;;;;;11.82;2.00;;;1.10;99.90;;;;;;5014283;28;20033;-76
2022/01/06 08:46:39;;;;;;;14.60;2.30;;;1.00;99.90;;;;;;5017200;28;20099;-76
2022/01/06 08:49:06;;;;;;;10.90;1.60;;;1.10;99.90;;;;;;5015531;28;20457;-79
2022/01/06 08:51:32;;;;;;;13.43;2.03;;;1.10;99.90;;;;;;5018408;28;20168;-79
2022/01/06 08:53:58;;;;;;;9.90;2.05;;;1.20;99.90;;;;;;5007849;28;20077;-79
2022/01/06 08:56:24;;;;;;;11.32;2.67;;;1.20;99.90;;;;;;5012586;28;20056;-79
2022/01/06 08:58:49;;;;;;;19.33;2.75;;;1.20;99.90;;;;;;5017431;28;20106;-80
2022/01/06 09:01:15;;;;;;;13.27;1.85;;;1.20;99.90;;;;;;5019669;28;20073;-79
2022/01/06 09:03:41;;;;;;;13.98;2.47;;;1.30;99.90;;;;;;5011864;28;20688;-79
2022/01/06 09:06:06;;;;;;;13.93;2.22;;;1.30;99.90;;;;;;5018848;28;20068;-80
2022/01/06 09:08:32;;;;;;;13.90;2.55;;;1.30;99.90;;;;;;5018989;28;20045;-80
2022/01/06 09:10:57;;;;;;;12.73;1.90;;;1.30;99.90;;;;;;5013644;28;20155;-79
2022/01/06 09:13:23;;;;;;;17.35;2.60;;;1.30;99.90;;;;;;5010779;28;20053;-80
2022/01/06 09:15:49;;;;;;;21.33;2.60;;;1.30;99.90;;;;;;5014012;28;20068;-79
2022/01/06 09:18:14;;;;;;;16.83;3.05;;;1.40;99.90;;;;;;5013257;28;20131;-81
2022/01/06 09:20:40;;;;;;;14.50;2.20;;;1.40;99.90;;;;;;5018153;28;20048;-81
2022/01/06 09:23:06;;;;;;;16.08;2.53;;;1.40;99.90;;;;;;5013064;28;20045;-81
2022/01/06 09:25:32;;;;;;;12.45;2.35;;;1.50;99.90;;;;;;5010107;28;20095;-80
2022/01/06 09:27:57;;;;;;;10.40;1.60;;;1.50;99.90;;;;;;5018450;28;20103;-81
2022/01/06 09:30:25;;;;;;;22.30;2.38;;;1.60;99.90;;;;;;5018246;28;20253;-81
2022/01/06 09:32:50;;;;;;;15.85;2.65;;;1.60;99.90;;;;;;5017592;28;20049;-81
2022/01/06 09:35:16;;;;;;;17.02;2.42;;;1.80;99.90;;;;;;5009343;28;20025;-80
2022/01/06 09:37:42;;;;;;;11.50;2.38;;;1.70;99.90;;;;;;5007720;28;20057;-80
2022/01/06 09:40:09;;;;;;;14.52;2.53;;;1.70;99.90;;;;;;5014046;28;20051;-80
2022/01/06 09:42:35;;;;;;;13.93;2.47;;;1.70;99.90;;;;;;5013765;28;20148;-79
2022/01/06 09:45:03;;;;;;;9.15;2.60;;;1.70;99.90;;;;;;5013922;28;20049;-79
2022/01/06 09:47:30;;;;;;;11.88;2.75;;;1.80;99.90;;;;;;5018032;28;20092;-79
2022/01/06 09:49:56;;;;;;;13.57;2.83;;;1.80;99.90;;;;;;5015746;28;20049;-78
2022/01/06 09:52:22;;;;;;;17.60;2.63;;;1.80;99.90;;;;;;5017346;28;20041;-78
2022/01/06 09:54:48;;;;;;;19.58;3.20;;;1.90;99.90;;;;;;5012035;28;20061;-79
2022/01/06 09:57:14;;;;;;;15.25;2.65;;;1.90;99.90;;;;;;5011279;28;20044;-75
2022/01/06 09:59:43;;;;;;;19.73;3.00;;;1.90;99.90;;;;;;5012137;28;20038;-80
2022/01/06 10:02:16;;;;;;;12.45;2.35;;;2.00;99.90;;;;;;5010208;28;20056;-79
2022/01/06 10:04:43;;;;;;;12.18;2.20;;;2.10;99.90;;;;;;5005545;28;20033;-79
2022/01/06 10:07:10;;;;;;;10.75;1.98;;;2.10;99.90;;;;;;5012087;28;20045;-80
2022/01/06 10:09:39;;;;;;;11.18;2.00;;;2.10;99.90;;;;;;5017882;28;20045;-80
2022/01/06 10:12:10;;;;;;;15.95;3.08;;;2.20;99.90;;;;;;5010612;28;20050;-80
2022/01/06 10:14:41;;;;;;;17.23;2.67;;;2.20;99.90;;;;;;5012163;28;20834;-79
2022/01/06 10:17:08;;;;;;;14.45;3.35;;;2.30;99.90;;;;;;5016122;28;20055;-80
2022/01/06 10:19:42;;;;;;;17.35;2.97;;;2.30;99.90;;;;;;5018728;28;20049;-79
2022/01/06 10:22:16;;;;;;;;;;;2.30;99.90;;;;;;5017710;28;20054;-80
2022/01/06 10:24:44;;;;;;;15.38;2.78;;;2.40;99.90;;;;;;5010710;28;19925;-80
2022/01/06 10:27:12;;;;;;;13.48;3.88;;;2.60;99.90;;;;;;5013730;28;20901;-78
2022/01/06 10:29:41;;;;;;;22.30;3.13;;;2.50;99.90;;;;;;5014962;28;20680;-79
2022/01/06 10:32:08;;;;;;;20.58;3.10;;;2.60;99.90;;;;;;5014403;28;20457;-77
2022/01/06 10:34:39;;;;;;;12.90;2.47;;;2.60;99.90;;;;;;5009567;28;20136;-82
2022/01/06 10:37:19;;;;;;;17.05;3.10;;;2.70;99.90;;;;;;5013701;28;20056;-80
2022/01/06 10:39:46;;;;;;;16.17;2.97;;;2.80;99.90;;;;;;5029251;28;20073;-81
2022/01/06 10:42:12;;;;;;;13.02;2.22;;;2.90;99.90;;;;;;5016769;28;20049;-81
2022/01/06 10:44:48;;;;;;;20.10;2.97;;;2.90;99.90;;;;;;5006367;28;20466;-83
2022/01/06 10:47:27;;;;;;;15.75;2.70;;;3.00;99.90;;;;;;5012496;28;20045;-81
2022/01/06 10:49:53;;;;;;;13.32;2.10;;;3.10;99.90;;;;;;5013252;28;20047;-81
2022/01/06 10:52:26;;;;;;;20.88;2.78;;;3.10;99.90;;;;;;5042768;28;20061;-81
2022/01/06 10:54:52;;;;;;;14.88;2.92;;;3.20;99.90;;;;;;5006036;28;20049;-80
2022/01/06 10:57:18;;;;;;;15.75;3.53;;;3.30;99.90;;;;;;5011889;28;20081;-81
2022/01/06 10:59:45;;;;;;;19.63;2.72;;;3.40;99.90;;;;;;5043151;28;20038;-81
2022/01/06 11:02:24;;;;;;;17.40;2.55;;;4.20;99.90;;;;;;5040846;28;20053;-81
2022/01/06 11:04:50;;;;;;;19.45;3.33;;;3.50;99.90;;;;;;5005472;28;20068;-78
2022/01/06 11:07:16;;;;;;;19.25;3.30;;;3.60;99.90;;;;;;5011529;28;20053;-79
2022/01/06 11:09:46;;;;;;;22.23;3.85;;;3.70;99.90;;;;;;5014656;28;20611;-78
2022/01/06 11:12:31;;;;;;;17.83;2.95;;;3.40;99.90;;;;;;5006375;28;20037;-79
2022/01/06 11:14:57;;;;;;;16.08;2.50;;;3.90;99.90;;;;;;5000563;28;20072;-79
2022/01/06 11:17:24;;;;;;;15.23;2.25;;;4.00;99.90;;;;;;5011198;28;20049;-79
2022/01/06 11:19:51;;;;;;;20.52;2.80;;;4.10;99.90;;;;;;5012354;28;20037;-79
2022/01/06 11:22:25;;;;;;;16.20;2.67;;;4.20;99.90;;;;;;5009213;28;20071;-77
2022/01/06 11:25:03;;;;;;;24.95;3.88;;;4.30;99.90;;;;;;5009684;28;20041;-76
2022/01/06 11:27:35;;;;;;;17.60;3.03;;;4.40;99.90;;;;;;5011431;28;20532;-77
2022/01/06 11:30:15;;;;;;;18.75;3.28;;;4.50;99.90;;;;;;5014708;28;20053;-77
2022/01/06 11:32:44;;;;;;;21.13;2.63;;;4.60;99.90;;;;;;5019159;28;20489;-76
2022/01/06 11:35:16;;;;;;;15.75;2.72;;;5.10;99.90;;;;;;5010965;28;20057;-76
2022/01/06 11:37:44;;;;;;;22.33;3.58;;;4.80;99.90;;;;;;5008600;28;20045;-76
2022/01/06 11:40:12;;;;;;;13.73;2.25;;;4.90;99.90;;;;;;5014650;28;20413;-76
2022/01/06 11:42:38;;;;;;;18.30;2.50;;;5.00;99.90;;;;;;5014123;28;20087;-76
2022/01/06 11:45:07;;;;;;;16.75;2.65;;;5.10;99.90;;;;;;5007052;28;20050;-76
2022/01/06 11:47:38;;;;;;;21.33;4.25;;;5.20;99.90;;;;;;5008982;28;20508;-76
2022/01/06 11:50:24;;;;;;;20.20;2.97;;;5.90;99.90;;;;;;5011812;28;20045;-76
2022/01/06 11:53:00;;;;;;;16.25;3.00;;;5.40;99.90;;;;;;5009856;28;20136;-75
2022/01/06 11:55:35;;;;;;;18.67;3.10;;;5.60;99.90;;;;;;5008332;28;20662;-75
2022/01/06 11:58:12;;;;;;;14.45;2.40;;;5.60;99.90;;;;;;5007972;28;20460;-75
2022/01/06 12:00:42;;;;;;;12.48;2.00;;;5.70;99.90;;;;;;5006590;28;20046;-79
2022/01/06 12:03:12;;;;;;;18.17;2.15;;;5.70;99.90;;;;;;5041284;28;20108;-79
2022/01/06 12:05:48;;;;;;;13.80;2.20;;;5.80;99.90;;;;;;5007283;28;20731;-79
2022/01/06 12:08:18;;;;;;;16.98;2.45;;;5.90;99.90;;;;;;5010255;28;20492;-79
2022/01/06 12:10:47;;;;;;;15.93;2.90;;;5.90;99.90;;;;;;5012637;28;20436;-77
2022/01/06 12:13:14;;;;;;;19.70;2.70;;;6.10;99.90;;;;;;5005980;28;20508;-77
2022/01/06 12:15:52;;;;;;;11.93;2.00;;;6.20;99.90;;;;;;5040527;28;20277;-78
2022/01/06 12:18:38;;;;;;;12.70;2.15;;;5.90;99.90;;;;;;5015258;28;20076;-77
2022/01/06 12:21:03;;;;;;;13.30;2.08;;;6.20;99.90;;;;;;5012000;28;20112;-78
2022/01/06 12:23:29;;;;;;;19.05;2.22;;;6.30;99.90;;;;;;5007524;28;20049;-78
2022/01/06 12:26:01;;;;;;;16.40;1.95;;;6.30;99.90;;;;;;5012233;28;20078;-76
2022/01/06 12:28:28;;;;;;;16.77;2.58;;;6.30;99.90;;;;;;5015332;28;20723;-76
2022/01/06 12:31:02;;;;;;;18.35;2.20;;;6.30;99.90;;;;;;5011341;28;20064;-77
2022/01/06 12:33:31;;;;;;;14.52;2.42;;;6.40;99.90;;;;;;5005170;28;20042;-73
2022/01/06 12:35:58;;;;;;;16.58;2.08;;;6.40;99.90;;;;;;5011344;28;20048;-74
2022/01/06 12:38:32;;;;;;;22.73;2.97;;;6.30;99.90;;;;;;5009952;28;20105;-73
2022/01/06 12:40:58;;;;;;;;;;;6.50;99.90;;;;;;5011622;28;20057;-74
2022/01/06 12:43:28;;;;;;;15.38;1.95;;;6.50;99.90;;;;;;5009963;28;19966;-77
2022/01/06 12:46:08;;;;;;;9.27;1.67;;;6.50;99.90;;;;;;5010780;28;20049;-78
2022/01/06 12:48:38;;;;;;;18.52;2.70;;;6.50;99.90;;;;;;5013315;28;20049;-78
2022/01/06 12:51:05;;;;;;;12.63;1.85;;;6.50;99.90;;;;;;5018237;28;20107;-78
2022/01/06 12:53:37;;;;;;;15.25;2.42;;;6.80;99.90;;;;;;5013215;28;20532;-78